Asheville, North Carolina
Current Conditions -  °F | °C
As of 8:54 AM on Monday 20 Oct 2014 (Local Time) from KAVL Reporting Station
Few Clouds Few Clouds  
Wind Chill:   Ceiling: Unl
Heat Index:   Visibility: 10mi
Dew Point:   Wind: 3mph
Humidity: 93%   Direction: 170°S
Pressure: 30.14"   Gusts: NA
Location:  35.6°N, 82.55°W
Report Text: KAVL 201254Z 17003KT 10SM FEW002 06/05 A3014 RMK AO2 SLP203 T00610050
Loading
Personal Weather Stations






























Interactive Weather Map
Tropical Storm Tracking
New forecast layout! Learn more

10-Day Weather Forecast

Advertisements
Track Severe Weather on mobile